sensor_id;sensor_type;location;lat;lon;timestamp;pressure;altitude;pressure_sealevel;temperature;humidity
15308;BME280;7755;52.208;6.964;2023-02-23T00:00:19;100867.19;;;9.50;100.00
15308;BME280;7755;52.208;6.964;2023-02-23T00:04:28;100862.75;;;9.56;100.00
15308;BME280;7755;52.208;6.964;2023-02-23T00:08:33;100857.75;;;9.53;100.00
15308;BME280;7755;52.208;6.964;2023-02-23T00:12:37;100868.25;;;9.49;100.00
15308;BME280;7755;52.208;6.964;2023-02-23T00:16:40;100869.09;;;9.50;100.00
15308;BME280;7755;52.208;6.964;2023-02-23T00:20:54;100875.09;;;9.52;100.00
15308;BME280;7755;52.208;6.964;2023-02-23T00:24:59;100865.91;;;9.53;100.00
15308;BME280;7755;52.208;6.964;2023-02-23T00:29:06;100851.75;;;9.51;100.00
15308;BME280;7755;52.208;6.964;2023-02-23T00:33:11;100856.94;;;9.52;100.00
15308;BME280;7755;52.208;6.964;2023-02-23T00:37:15;100850.91;;;9.50;100.00
15308;BME280;7755;52.208;6.964;2023-02-23T00:41:20;100855.75;;;9.48;100.00
15308;BME280;7755;52.208;6.964;2023-02-23T00:45:24;100857.41;;;9.49;100.00
15308;BME280;7755;52.208;6.964;2023-02-23T00:49:27;100848.44;;;9.49;100.00
15308;BME280;7755;52.208;6.964;2023-02-23T00:53:31;100848.19;;;9.50;100.00
15308;BME280;7755;52.208;6.964;2023-02-23T00:57:36;100856.59;;;9.49;100.00
15308;BME280;7755;52.208;6.964;2023-02-23T01:01:39;100858.47;;;9.48;100.00
15308;BME280;7755;52.208;6.964;2023-02-23T01:05:43;100864.09;;;9.47;100.00
15308;BME280;7755;52.208;6.964;2023-02-23T01:09:50;100845.94;;;9.47;100.00
15308;BME280;7755;52.208;6.964;2023-02-23T01:13:56;100857.41;;;9.49;100.00
15308;BME280;7755;52.208;6.964;2023-02-23T01:18:00;100861.53;;;9.52;100.00
15308;BME280;7755;52.208;6.964;2023-02-23T01:22:03;100860.31;;;9.48;100.00
15308;BME280;7755;52.208;6.964;2023-02-23T01:26:14;100861.88;;;9.44;100.00
15308;BME280;7755;52.208;6.964;2023-02-23T01:30:18;100862.31;;;9.41;100.00
15308;BME280;7755;52.208;6.964;2023-02-23T01:34:21;100866.69;;;9.42;100.00
15308;BME280;7755;52.208;6.964;2023-02-23T01:38:24;100854.78;;;9.43;100.00
15308;BME280;7755;52.208;6.964;2023-02-23T01:42:27;100861.47;;;9.40;100.00
15308;BME280;7755;52.208;6.964;2023-02-23T01:46:33;100860.88;;;9.38;100.00
15308;BME280;7755;52.208;6.964;2023-02-23T01:50:44;100863.59;;;9.38;100.00
15308;BME280;7755;52.208;6.964;2023-02-23T01:54:52;100859.22;;;9.37;100.00
15308;BME280;7755;52.208;6.964;2023-02-23T01:58:59;100858.66;;;9.35;100.00
15308;BME280;7755;52.208;6.964;2023-02-23T02:03:11;100855.06;;;9.35;100.00
15308;BME280;7755;52.208;6.964;2023-02-23T02:07:19;100858.84;;;9.34;100.00
15308;BME280;7755;52.208;6.964;2023-02-23T02:11:24;100850.72;;;9.34;100.00
15308;BME280;7755;52.208;6.964;2023-02-23T02:15:34;100850.72;;;9.34;100.00
15308;BME280;7755;52.208;6.964;2023-02-23T02:20:05;100854.47;;;9.33;100.00
15308;BME280;7755;52.208;6.964;2023-02-23T02:24:28;100855.31;;;9.33;100.00
15308;BME280;7755;52.208;6.964;2023-02-23T02:29:03;100856.59;;;9.30;100.00
15308;BME280;7755;52.208;6.964;2023-02-23T02:33:47;100858.72;;;9.28;100.00
15308;BME280;7755;52.208;6.964;2023-02-23T02:38:12;100854.28;;;9.16;100.00
15308;BME280;7755;52.208;6.964;2023-02-23T02:42:21;100848.72;;;9.11;100.00
15308;BME280;7755;52.208;6.964;2023-02-23T02:46:34;100854.13;;;9.11;100.00
15308;BME280;7755;52.208;6.964;2023-02-23T02:50:43;100845.19;;;9.10;100.00
15308;BME280;7755;52.208;6.964;2023-02-23T02:54:51;100853.56;;;9.09;100.00
15308;BME280;7755;52.208;6.964;2023-02-23T02:58:55;100852.34;;;9.05;100.00
15308;BME280;7755;52.208;6.964;2023-02-23T03:03:00;100851.28;;;9.06;100.00
15308;BME280;7755;52.208;6.964;2023-02-23T03:07:25;100852.94;;;9.07;100.00
15308;BME280;7755;52.208;6.964;2023-02-23T03:11:56;100856.63;;;9.12;100.00
15308;BME280;7755;52.208;6.964;2023-02-23T03:16:25;100857.44;;;9.13;100.00
15308;BME280;7755;52.208;6.964;2023-02-23T03:20:51;100856.38;;;9.14;100.00
15308;BME280;7755;52.208;6.964;2023-02-23T03:25:18;100858.06;;;9.15;100.00
15308;BME280;7755;52.208;6.964;2023-02-23T03:29:47;100859.91;;;9.14;100.00
15308;BME280;7755;52.208;6.964;2023-02-23T03:34:15;100867.03;;;9.15;100.00
15308;BME280;7755;52.208;6.964;2023-02-23T03:38:43;100863.50;;;9.15;100.00
15308;BME280;7755;52.208;6.964;2023-02-23T03:43:08;100864.09;;;9.17;100.00
15308;BME280;7755;52.208;6.964;2023-02-23T03:47:34;100865.72;;;9.18;100.00
15308;BME280;7755;52.208;6.964;2023-02-23T03:52:01;100864.09;;;9.17;100.00
15308;BME280;7755;52.208;6.964;2023-02-23T03:56:25;100866.41;;;9.13;100.00
15308;BME280;7755;52.208;6.964;2023-02-23T04:00:48;100879.97;;;9.13;100.00
15308;BME280;7755;52.208;6.964;2023-02-23T04:05:15;100873.28;;;9.16;100.00
15308;BME280;7755;52.208;6.964;2023-02-23T04:09:37;100876.44;;;9.13;100.00
15308;BME280;7755;52.208;6.964;2023-02-23T04:14:01;100879.38;;;9.11;100.00
15308;BME280;7755;52.208;6.964;2023-02-23T04:18:07;100879.13;;;9.13;100.00
15308;BME280;7755;52.208;6.964;2023-02-23T04:22:15;100874.19;;;9.10;100.00
15308;BME280;7755;52.208;6.964;2023-02-23T04:26:18;100882.75;;;9.07;100.00
15308;BME280;7755;52.208;6.964;2023-02-23T04:30:21;100881.09;;;9.06;100.00
15308;BME280;7755;52.208;6.964;2023-02-23T04:34:26;100884.88;;;9.05;100.00
15308;BME280;7755;52.208;6.964;2023-02-23T04:38:31;100880.28;;;9.05;100.00
15308;BME280;7755;52.208;6.964;2023-02-23T04:42:34;100889.25;;;9.06;100.00
15308;BME280;7755;52.208;6.964;2023-02-23T04:46:37;100885.94;;;9.03;100.00
15308;BME280;7755;52.208;6.964;2023-02-23T04:50:40;100898.66;;;9.03;100.00
15308;BME280;7755;52.208;6.964;2023-02-23T04:54:45;100901.38;;;9.03;100.00
15308;BME280;7755;52.208;6.964;2023-02-23T04:58:48;100901.63;;;9.01;100.00
15308;BME280;7755;52.208;6.964;2023-02-23T05:02:52;100896.78;;;9.03;100.00
15308;BME280;7755;52.208;6.964;2023-02-23T05:06:55;100905.16;;;9.02;100.00
15308;BME280;7755;52.208;6.964;2023-02-23T05:10:59;100892.50;;;8.96;100.00
15308;BME280;7755;52.208;6.964;2023-02-23T05:15:03;100898.28;;;8.99;100.00
15308;BME280;7755;52.208;6.964;2023-02-23T05:19:07;100912.06;;;8.98;100.00
15308;BME280;7755;52.208;6.964;2023-02-23T05:23:10;100904.16;;;8.96;100.00
15308;BME280;7755;52.208;6.964;2023-02-23T05:27:15;100908.28;;;8.99;100.00
15308;BME280;7755;52.208;6.964;2023-02-23T05:31:18;100905.97;;;9.02;100.00
15308;BME280;7755;52.208;6.964;2023-02-23T05:35:22;100901.00;;;8.99;100.00
15308;BME280;7755;52.208;6.964;2023-02-23T05:39:25;100908.53;;;8.97;100.00
15308;BME280;7755;52.208;6.964;2023-02-23T05:43:29;100909.34;;;8.98;100.00
15308;BME280;7755;52.208;6.964;2023-02-23T05:47:33;100910.03;;;8.93;100.00
15308;BME280;7755;52.208;6.964;2023-02-23T05:51:40;100909.44;;;8.91;100.00
15308;BME280;7755;52.208;6.964;2023-02-23T05:55:43;100905.06;;;8.90;100.00
15308;BME280;7755;52.208;6.964;2023-02-23T06:00:03;100908.00;;;8.89;100.00
15308;BME280;7755;52.208;6.964;2023-02-23T06:04:06;100916.72;;;8.91;100.00
15308;BME280;7755;52.208;6.964;2023-02-23T06:08:09;100921.31;;;8.90;100.00
15308;BME280;7755;52.208;6.964;2023-02-23T06:12:14;100931.56;;;8.88;100.00
15308;BME280;7755;52.208;6.964;2023-02-23T06:16:19;100926.75;;;8.90;100.00
15308;BME280;7755;52.208;6.964;2023-02-23T06:20:22;100922.56;;;8.94;100.00
15308;BME280;7755;52.208;6.964;2023-02-23T06:24:25;100928.81;;;8.95;100.00
15308;BME280;7755;52.208;6.964;2023-02-23T06:28:28;100936.09;;;8.94;100.00
15308;BME280;7755;52.208;6.964;2023-02-23T06:32:33;100935.06;;;8.95;100.00
15308;BME280;7755;52.208;6.964;2023-02-23T06:36:38;100942.78;;;8.92;100.00
15308;BME280;7755;52.208;6.964;2023-02-23T06:40:41;100938.50;;;8.84;100.00
15308;BME280;7755;52.208;6.964;2023-02-23T06:44:45;100942.50;;;8.82;100.00
15308;BME280;7755;52.208;6.964;2023-02-23T06:48:53;100939.38;;;8.78;100.00
15308;BME280;7755;52.208;6.964;2023-02-23T06:52:56;100940.66;;;8.75;100.00
15308;BME280;7755;52.208;6.964;2023-02-23T06:57:00;100947.28;;;8.80;100.00
15308;BME280;7755;52.208;6.964;2023-02-23T07:01:04;100954.59;;;8.79;100.00
15308;BME280;7755;52.208;6.964;2023-02-23T07:05:08;100956.69;;;8.77;100.00
15308;BME280;7755;52.208;6.964;2023-02-23T07:09:12;100956.94;;;8.75;100.00
15308;BME280;7755;52.208;6.964;2023-02-23T07:13:16;100972.78;;;8.72;100.00
15308;BME280;7755;52.208;6.964;2023-02-23T07:17:21;100979.72;;;8.68;100.00
15308;BME280;7755;52.208;6.964;2023-02-23T07:21:26;100986.84;;;8.62;100.00
15308;BME280;7755;52.208;6.964;2023-02-23T07:25:29;100986.56;;;8.45;100.00
15308;BME280;7755;52.208;6.964;2023-02-23T07:29:32;100997.00;;;8.42;100.00
15308;BME280;7755;52.208;6.964;2023-02-23T07:33:36;100991.41;;;8.37;100.00
15308;BME280;7755;52.208;6.964;2023-02-23T07:37:40;100999.78;;;8.29;100.00
15308;BME280;7755;52.208;6.964;2023-02-23T07:41:44;101006.47;;;8.19;100.00
15308;BME280;7755;52.208;6.964;2023-02-23T07:45:52;101022.31;;;8.23;100.00
15308;BME280;7755;52.208;6.964;2023-02-23T07:49:56;101020.44;;;8.23;100.00
15308;BME280;7755;52.208;6.964;2023-02-23T07:54:03;101016.06;;;8.22;100.00
15308;BME280;7755;52.208;6.964;2023-02-23T07:58:07;101021.25;;;8.24;100.00
15308;BME280;7755;52.208;6.964;2023-02-23T08:02:13;101029.56;;;8.29;100.00
15308;BME280;7755;52.208;6.964;2023-02-23T08:06:18;101025.16;;;8.34;100.00
15308;BME280;7755;52.208;6.964;2023-02-23T08:10:22;101031.00;;;8.38;100.00
15308;BME280;7755;52.208;6.964;2023-02-23T08:14:26;101039.13;;;8.38;100.00
15308;BME280;7755;52.208;6.964;2023-02-23T08:18:29;101034.75;;;8.37;100.00
15308;BME280;7755;52.208;6.964;2023-02-23T08:22:32;101037.06;;;8.33;100.00
15308;BME280;7755;52.208;6.964;2023-02-23T08:26:52;101042.06;;;8.30;100.00
15308;BME280;7755;52.208;6.964;2023-02-23T08:30:55;101042.91;;;8.30;100.00
15308;BME280;7755;52.208;6.964;2023-02-23T08:35:00;101048.94;;;8.26;100.00
15308;BME280;7755;52.208;6.964;2023-02-23T08:39:03;101042.94;;;8.24;100.00
15308;BME280;7755;52.208;6.964;2023-02-23T08:43:09;101052.50;;;8.26;100.00
15308;BME280;7755;52.208;6.964;2023-02-23T08:47:12;101049.19;;;8.24;100.00
15308;BME280;7755;52.208;6.964;2023-02-23T08:51:17;101046.69;;;8.23;100.00
15308;BME280;7755;52.208;6.964;2023-02-23T08:55:21;101060.22;;;8.23;100.00
15308;BME280;7755;52.208;6.964;2023-02-23T08:59:26;101060.41;;;8.28;100.00
15308;BME280;7755;52.208;6.964;2023-02-23T09:03:29;101056.03;;;8.33;100.00
15308;BME280;7755;52.208;6.964;2023-02-23T09:07:32;101061.22;;;8.35;100.00
15308;BME280;7755;52.208;6.964;2023-02-23T09:11:35;101060.81;;;8.31;100.00
15308;BME280;7755;52.208;6.964;2023-02-23T09:15:40;101062.47;;;8.32;100.00
15308;BME280;7755;52.208;6.964;2023-02-23T09:19:43;101071.03;;;8.29;100.00
15308;BME280;7755;52.208;6.964;2023-02-23T09:23:46;101077.06;;;8.31;100.00
15308;BME280;7755;52.208;6.964;2023-02-23T09:27:53;101087.06;;;8.31;100.00
15308;BME280;7755;52.208;6.964;2023-02-23T09:31:59;101086.47;;;8.35;100.00
15308;BME280;7755;52.208;6.964;2023-02-23T09:36:06;101084.34;;;8.37;100.00
15308;BME280;7755;52.208;6.964;2023-02-23T09:40:13;101089.97;;;8.42;100.00
15308;BME280;7755;52.208;6.964;2023-02-23T09:44:22;101087.44;;;8.47;100.00
15308;BME280;7755;52.208;6.964;2023-02-23T09:48:33;101095.97;;;8.44;100.00
15308;BME280;7755;52.208;6.964;2023-02-23T09:52:39;101092.91;;;8.34;100.00
15308;BME280;7755;52.208;6.964;2023-02-23T09:56:46;101102.91;;;8.34;100.00
15308;BME280;7755;52.208;6.964;2023-02-23T10:00:56;101096.84;;;8.38;100.00
15308;BME280;7755;52.208;6.964;2023-02-23T10:05:04;101101.41;;;8.44;100.00
15308;BME280;7755;52.208;6.964;2023-02-23T10:09:17;101096.22;;;8.43;100.00
15308;BME280;7755;52.208;6.964;2023-02-23T10:13:30;101098.13;;;8.36;100.00
15308;BME280;7755;52.208;6.964;2023-02-23T10:17:46;101101.22;;;8.33;100.00
15308;BME280;7755;52.208;6.964;2023-02-23T10:21:55;101101.41;;;8.44;100.00
15308;BME280;7755;52.208;6.964;2023-02-23T10:25:59;101105.97;;;8.51;100.00
15308;BME280;7755;52.208;6.964;2023-02-23T10:30:15;101109.44;;;8.64;100.00
15308;BME280;7755;52.208;6.964;2023-02-23T10:34:20;101099.19;;;8.66;100.00
15308;BME280;7755;52.208;6.964;2023-02-23T10:38:25;101103.97;;;8.71;100.00
15308;BME280;7755;52.208;6.964;2023-02-23T10:42:29;101103.31;;;8.75;100.00
15308;BME280;7755;52.208;6.964;2023-02-23T10:46:36;101110.78;;;8.80;100.00
15308;BME280;7755;52.208;6.964;2023-02-23T10:50:39;101102.41;;;8.88;100.00
15308;BME280;7755;52.208;6.964;2023-02-23T10:54:47;101102.41;;;8.88;100.00
15308;BME280;7755;52.208;6.964;2023-02-23T10:58:53;101110.56;;;8.82;100.00
15308;BME280;7755;52.208;6.964;2023-02-23T11:02:57;101115.13;;;8.88;100.00
15308;BME280;7755;52.208;6.964;2023-02-23T11:07:08;101116.88;;;9.00;100.00
15308;BME280;7755;52.208;6.964;2023-02-23T11:11:22;101115.41;;;9.05;100.00
15308;BME280;7755;52.208;6.964;2023-02-23T11:15:30;101118.72;;;9.07;100.00
15308;BME280;7755;52.208;6.964;2023-02-23T11:19:57;101121.47;;;9.00;100.00
15308;BME280;7755;52.208;6.964;2023-02-23T11:24:09;101121.47;;;9.00;100.00
15308;BME280;7755;52.208;6.964;2023-02-23T11:28:19;101120.47;;;9.01;100.00
15308;BME280;7755;52.208;6.964;2023-02-23T11:32:26;101123.91;;;8.83;100.00
15308;BME280;7755;52.208;6.964;2023-02-23T11:36:33;101117.09;;;8.74;100.00
15308;BME280;7755;52.208;6.964;2023-02-23T11:40:40;101108.09;;;8.73;100.00
15308;BME280;7755;52.208;6.964;2023-02-23T11:44:50;101116.41;;;8.79;100.00
15308;BME280;7755;52.208;6.964;2023-02-23T11:48:57;101116.41;;;8.79;100.00
15308;BME280;7755;52.208;6.964;2023-02-23T11:53:03;101118.72;;;8.82;100.00
15308;BME280;7755;52.208;6.964;2023-02-23T11:57:07;101115.13;;;8.88;100.00
15308;BME280;7755;52.208;6.964;2023-02-23T12:01:14;101119.50;;;8.89;100.00
15308;BME280;7755;52.208;6.964;2023-02-23T12:05:23;101114.63;;;8.97;100.00
15308;BME280;7755;52.208;6.964;2023-02-23T12:09:31;101125.47;;;8.97;100.00
15308;BME280;7755;52.208;6.964;2023-02-23T12:13:39;101128.69;;;8.88;100.00
15308;BME280;7755;52.208;6.964;2023-02-23T12:17:48;101122.63;;;8.86;100.00
15308;BME280;7755;52.208;6.964;2023-02-23T12:22:00;101109.34;;;8.78;100.00
15308;BME280;7755;52.208;6.964;2023-02-23T12:26:09;101110.16;;;8.78;100.00
15308;BME280;7755;52.208;6.964;2023-02-23T12:30:16;101106.59;;;8.84;100.00
15308;BME280;7755;52.208;6.964;2023-02-23T12:34:26;101110.13;;;8.85;100.00
15308;BME280;7755;52.208;6.964;2023-02-23T12:38:38;101114.50;;;8.86;100.00
15308;BME280;7755;52.208;6.964;2023-02-23T12:42:55;101108.84;;;8.87;100.00
15308;BME280;7755;52.208;6.964;2023-02-23T12:47:05;101121.38;;;8.88;100.00
15308;BME280;7755;52.208;6.964;2023-02-23T12:51:17;101124.09;;;8.88;100.00
15308;BME280;7755;52.208;6.964;2023-02-23T12:55:31;101111.50;;;8.94;100.00
15308;BME280;7755;52.208;6.964;2023-02-23T13:00:04;101112.94;;;9.03;100.00
15308;BME280;7755;52.208;6.964;2023-02-23T13:04:31;101119.13;;;9.10;100.00
15308;BME280;7755;52.208;6.964;2023-02-23T13:08:58;101130.41;;;9.07;100.00
15308;BME280;7755;52.208;6.964;2023-02-23T13:13:15;101129.75;;;9.12;100.00
15308;BME280;7755;52.208;6.964;2023-02-23T13:17:37;101113.53;;;9.05;100.00
15308;BME280;7755;52.208;6.964;2023-02-23T13:21:45;101127.50;;;9.09;100.00
15308;BME280;7755;52.208;6.964;2023-02-23T13:25:57;101129.47;;;8.95;100.00
15308;BME280;7755;52.208;6.964;2023-02-23T13:30:03;101120.09;;;8.91;100.00
15308;BME280;7755;52.208;6.964;2023-02-23T13:34:15;101127.44;;;8.84;100.00
15308;BME280;7755;52.208;6.964;2023-02-23T13:38:29;101126.41;;;8.85;100.00
15308;BME280;7755;52.208;6.964;2023-02-23T13:42:54;101119.59;;;8.75;100.00
15308;BME280;7755;52.208;6.964;2023-02-23T13:47:05;101135.03;;;8.75;100.00
15308;BME280;7755;52.208;6.964;2023-02-23T13:51:17;101120.84;;;8.73;100.00
15308;BME280;7755;52.208;6.964;2023-02-23T13:55:44;101129.59;;;8.75;100.00
15308;BME280;7755;52.208;6.964;2023-02-23T13:59:53;101129.97;;;8.79;100.00
15308;BME280;7755;52.208;6.964;2023-02-23T14:03:57;101127.06;;;8.73;100.00
15308;BME280;7755;52.208;6.964;2023-02-23T14:08:03;101128.13;;;8.72;100.00
15308;BME280;7755;52.208;6.964;2023-02-23T14:12:13;101132.09;;;8.77;100.00
15308;BME280;7755;52.208;6.964;2023-02-23T14:16:21;101131.63;;;8.80;100.00
15308;BME280;7755;52.208;6.964;2023-02-23T14:20:46;101132.91;;;8.77;100.00
15308;BME280;7755;52.208;6.964;2023-02-23T14:29:37;101143.16;;;8.75;100.00
15308;BME280;7755;52.208;6.964;2023-02-23T14:33:53;101137.31;;;8.71;100.00
15308;BME280;7755;52.208;6.964;2023-02-23T14:38:00;101133.81;;;8.64;100.00
15308;BME280;7755;52.208;6.964;2023-02-23T14:42:05;101135.44;;;8.72;100.00
15308;BME280;7755;52.208;6.964;2023-02-23T14:46:17;101138.59;;;8.69;100.00
15308;BME280;7755;52.208;6.964;2023-02-23T14:50:26;101137.31;;;8.71;100.00
15308;BME280;7755;52.208;6.964;2023-02-23T14:54:31;101130.84;;;8.72;100.00
15308;BME280;7755;52.208;6.964;2023-02-23T14:58:35;101134.97;;;8.82;100.00
15308;BME280;7755;52.208;6.964;2023-02-23T15:02:38;101125.38;;;8.79;100.00
15308;BME280;7755;52.208;6.964;2023-02-23T15:06:59;101130.38;;;8.82;100.00
15308;BME280;7755;52.208;6.964;2023-02-23T15:11:06;101116.34;;;8.92;100.00
15308;BME280;7755;52.208;6.964;2023-02-23T15:15:17;101108.19;;;8.92;100.00
15308;BME280;7755;52.208;6.964;2023-02-23T15:19:31;101115.50;;;8.91;100.00
15308;BME280;7755;52.208;6.964;2023-02-23T15:23:36;101112.16;;;8.96;100.00
15308;BME280;7755;52.208;6.964;2023-02-23T15:27:41;101116.00;;;9.07;100.00
15308;BME280;7755;52.208;6.964;2023-02-23T15:31:47;101125.38;;;9.11;100.00
15308;BME280;7755;52.208;6.964;2023-02-23T15:35:59;101117.47;;;9.09;100.00
15308;BME280;7755;52.208;6.964;2023-02-23T15:40:11;101118.31;;;9.10;100.00
15308;BME280;7755;52.208;6.964;2023-02-23T15:44:20;101124.31;;;9.12;100.00
15308;BME280;7755;52.208;6.964;2023-02-23T15:48:28;101122.50;;;9.06;100.00
15308;BME280;7755;52.208;6.964;2023-02-23T15:52:45;101121.47;;;9.00;100.00
15308;BME280;7755;52.208;6.964;2023-02-23T15:56:54;101121.47;;;9.00;100.00
15308;BME280;7755;52.208;6.964;2023-02-23T16:01:00;101126.47;;;9.03;100.00
15308;BME280;7755;52.208;6.964;2023-02-23T16:05:18;101122.31;;;9.00;100.00
15308;BME280;7755;52.208;6.964;2023-02-23T16:09:27;101129.25;;;8.96;100.00
15308;BME280;7755;52.208;6.964;2023-02-23T16:13:32;101133.44;;;8.92;100.00
15308;BME280;7755;52.208;6.964;2023-02-23T16:17:41;101124.88;;;8.95;100.00
15308;BME280;7755;52.208;6.964;2023-02-23T16:21:47;101135.09;;;8.93;100.00
15308;BME280;7755;52.208;6.964;2023-02-23T16:25:56;101123.69;;;8.85;100.00
15308;BME280;7755;52.208;6.964;2023-02-23T16:30:16;101132.88;;;8.84;100.00
15308;BME280;7755;52.208;6.964;2023-02-23T16:34:24;101135.63;;;8.77;100.00
15308;BME280;7755;52.208;6.964;2023-02-23T16:38:33;101128.09;;;8.79;100.00
15308;BME280;7755;52.208;6.964;2023-02-23T16:42:38;101140.00;;;8.78;100.00
15308;BME280;7755;52.208;6.964;2023-02-23T16:47:28;101134.53;;;8.85;100.00
15308;BME280;7755;52.208;6.964;2023-02-23T16:51:35;101134.47;;;8.91;100.00
15308;BME280;7755;52.208;6.964;2023-02-23T16:55:40;101123.88;;;8.90;100.00
15308;BME280;7755;52.208;6.964;2023-02-23T16:59:45;101127.00;;;8.87;100.00
15308;BME280;7755;52.208;6.964;2023-02-23T17:03:52;101136.63;;;8.83;100.00
15308;BME280;7755;52.208;6.964;2023-02-23T17:07:56;101134.34;;;8.80;100.00
15308;BME280;7755;52.208;6.964;2023-02-23T17:11:59;101134.78;;;8.77;100.00
15308;BME280;7755;52.208;6.964;2023-02-23T17:16:05;101140.59;;;8.80;100.00
15308;BME280;7755;52.208;6.964;2023-02-23T17:20:12;101151.88;;;8.77;100.00
15308;BME280;7755;52.208;6.964;2023-02-23T17:24:22;101166.31;;;8.71;100.00
15308;BME280;7755;52.208;6.964;2023-02-23T17:28:27;101187.91;;;8.33;100.00
15308;BME280;7755;52.208;6.964;2023-02-23T17:32:30;101177.56;;;8.10;100.00
15308;BME280;7755;52.208;6.964;2023-02-23T17:36:35;101193.47;;;7.80;100.00
15308;BME280;7755;52.208;6.964;2023-02-23T17:40:38;101201.19;;;7.56;100.00
15308;BME280;7755;52.208;6.964;2023-02-23T17:44:42;101200.34;;;7.43;100.00
15308;BME280;7755;52.208;6.964;2023-02-23T17:48:45;101199.09;;;7.32;100.00
15308;BME280;7755;52.208;6.964;2023-02-23T17:52:50;101221.56;;;7.32;100.00
15308;BME280;7755;52.208;6.964;2023-02-23T17:56:53;101215.34;;;7.32;100.00
15308;BME280;7755;52.208;6.964;2023-02-23T18:00:58;101208.66;;;7.28;100.00
15308;BME280;7755;52.208;6.964;2023-02-23T18:05:02;101219.03;;;7.18;100.00
15308;BME280;7755;52.208;6.964;2023-02-23T18:09:06;101228.19;;;7.10;100.00
15308;BME280;7755;52.208;6.964;2023-02-23T18:13:10;101234.22;;;7.12;100.00
15308;BME280;7755;52.208;6.964;2023-02-23T18:17:34;101238.78;;;7.05;100.00
15308;BME280;7755;52.208;6.964;2023-02-23T18:21:37;101240.81;;;6.96;100.00
15308;BME280;7755;52.208;6.964;2023-02-23T18:25:44;101243.94;;;6.87;100.00
15308;BME280;7755;52.208;6.964;2023-02-23T18:29:47;101250.56;;;6.91;100.00
15308;BME280;7755;52.208;6.964;2023-02-23T18:33:50;101241.88;;;6.95;100.00
15308;BME280;7755;52.208;6.964;2023-02-23T18:37:54;101239.59;;;6.99;100.00
15308;BME280;7755;52.208;6.964;2023-02-23T18:41:59;101244.59;;;7.02;100.00
15308;BME280;7755;52.208;6.964;2023-02-23T18:46:04;101253.25;;;6.84;100.00
15308;BME280;7755;52.208;6.964;2023-02-23T18:50:09;101243.66;;;6.75;100.00
15308;BME280;7755;52.208;6.964;2023-02-23T18:54:13;101259.06;;;6.74;100.00
15308;BME280;7755;52.208;6.964;2023-02-23T18:58:20;101259.47;;;6.71;100.00
15308;BME280;7755;52.208;6.964;2023-02-23T19:02:27;101251.75;;;6.68;100.00
15308;BME280;7755;52.208;6.964;2023-02-23T19:06:32;101248.81;;;6.63;100.00
15308;BME280;7755;52.208;6.964;2023-02-23T19:10:39;101252.53;;;6.55;100.00
15308;BME280;7755;52.208;6.964;2023-02-23T19:14:43;101270.38;;;6.56;100.00
15308;BME280;7755;52.208;6.964;2023-02-23T19:18:58;101267.47;;;6.51;100.00
15308;BME280;7755;52.208;6.964;2023-02-23T19:23:04;101268.66;;;6.42;100.00
15308;BME280;7755;52.208;6.964;2023-02-23T19:27:16;101253.13;;;6.51;100.00
15308;BME280;7755;52.208;6.964;2023-02-23T19:31:29;101260.78;;;6.47;100.00
15308;BME280;7755;52.208;6.964;2023-02-23T19:35:33;101258.34;;;6.52;100.00
15308;BME280;7755;52.208;6.964;2023-02-23T19:39:38;101253.72;;;6.46;100.00
15308;BME280;7755;52.208;6.964;2023-02-23T19:43:42;101249.19;;;6.53;100.00
15308;BME280;7755;52.208;6.964;2023-02-23T19:47:46;101248.78;;;6.56;100.00
15308;BME280;7755;52.208;6.964;2023-02-23T19:51:51;101236.75;;;6.59;100.00
15308;BME280;7755;52.208;6.964;2023-02-23T19:56:00;101245.66;;;6.53;100.00
15308;BME280;7755;52.208;6.964;2023-02-23T20:00:07;101235.91;;;6.52;100.00
15308;BME280;7755;52.208;6.964;2023-02-23T20:04:14;101236.72;;;6.52;100.00
15308;BME280;7755;52.208;6.964;2023-02-23T20:08:17;101253.13;;;6.51;100.00
15308;BME280;7755;52.208;6.964;2023-02-23T20:12:21;101252.50;;;6.49;100.00
15308;BME280;7755;52.208;6.964;2023-02-23T20:16:24;101255.41;;;6.47;100.00
15308;BME280;7755;52.208;6.964;2023-02-23T20:20:31;101254.34;;;6.48;100.00
15308;BME280;7755;52.208;6.964;2023-02-23T20:24:37;101257.03;;;6.42;100.00
15308;BME280;7755;52.208;6.964;2023-02-23T20:28:41;101249.50;;;6.31;100.00
15308;BME280;7755;52.208;6.964;2023-02-23T20:32:44;101252.19;;;6.31;100.00
15308;BME280;7755;52.208;6.964;2023-02-23T20:36:49;101250.88;;;6.20;100.00
15308;BME280;7755;52.208;6.964;2023-02-23T20:40:52;101251.28;;;6.17;100.00
15308;BME280;7755;52.208;6.964;2023-02-23T20:44:56;101254.13;;;6.09;100.00
15308;BME280;7755;52.208;6.964;2023-02-23T20:49:14;101243.69;;;5.99;100.00
15308;BME280;7755;52.208;6.964;2023-02-23T20:53:38;101249.03;;;5.92;100.00
15308;BME280;7755;52.208;6.964;2023-02-23T20:57:53;101248.38;;;5.90;100.00
15308;BME280;7755;52.208;6.964;2023-02-23T21:01:59;101240.22;;;5.84;100.00
15308;BME280;7755;52.208;6.964;2023-02-23T21:06:05;101243.09;;;5.82;100.00
15308;BME280;7755;52.208;6.964;2023-02-23T21:10:10;101245.56;;;5.77;100.00
15308;BME280;7755;52.208;6.964;2023-02-23T21:14:15;101242.03;;;5.77;100.00
15308;BME280;7755;52.208;6.964;2023-02-23T21:18:29;101239.97;;;5.79;100.00
15308;BME280;7755;52.208;6.964;2023-02-23T21:22:38;101232.13;;;5.84;100.00
15308;BME280;7755;52.208;6.964;2023-02-23T21:26:43;101230.06;;;5.86;100.00
15308;BME280;7755;52.208;6.964;2023-02-23T21:30:46;101222.38;;;5.83;100.00
15308;BME280;7755;52.208;6.964;2023-02-23T21:34:51;101221.13;;;5.85;100.00
15308;BME280;7755;52.208;6.964;2023-02-23T21:38:55;101219.69;;;5.83;100.00
15308;BME280;7755;52.208;6.964;2023-02-23T21:43:14;101210.88;;;5.74;100.00
15308;BME280;7755;52.208;6.964;2023-02-23T21:47:33;101212.50;;;5.68;100.00
15308;BME280;7755;52.208;6.964;2023-02-23T21:51:51;101210.78;;;5.61;100.00
15308;BME280;7755;52.208;6.964;2023-02-23T21:55:57;101204.69;;;5.52;100.00
15308;BME280;7755;52.208;6.964;2023-02-23T22:00:02;101205.03;;;5.42;100.00